Time;durP1;ratioP1;P1;durP2;ratioP2;P2;SDS_P1;SDS_P2;PMS_P1;PMS_P2;Temp;Humidity;BMP_temperature;BMP_pressure;BME280_temperature;BME280_humidity;BME280_pressure;Samples;Min_cycle;Max_cycle;Signal;HPM_P1;HPM_P2
2021/01/04 00:01:48;;;;;;;11.77;9.43;;;;;;;2.16;99.00;98945.47;5113794;28;20206;-67
2021/01/04 00:04:38;;;;;;;16.55;9.35;;;;;;;2.15;99.04;98949.03;5113667;28;20282;-67
2021/01/04 00:07:43;;;;;;;17.58;10.10;;;;;;;2.17;99.12;98942.78;5113129;28;20222;-68
2021/01/04 00:10:23;;;;;;;15.38;8.95;;;;;;;2.18;99.72;98941.00;5088206;28;20270;-67
2021/01/04 00:12:56;;;;;;;14.73;8.55;;;;;;;2.22;99.95;98943.47;5113156;28;20196;-67
2021/01/04 00:15:27;;;;;;;14.88;9.43;;;;;;;2.19;99.63;98945.38;5113509;28;20199;-67
2021/01/04 00:18:16;;;;;;;17.60;8.52;;;;;;;2.21;100.00;98938.22;5113001;28;20207;-67
2021/01/04 00:20:50;;;;;;;16.58;9.30;;;;;;;2.13;100.00;98940.28;5113086;28;20222;-68
2021/01/04 00:23:27;;;;;;;16.98;10.10;;;;;;;2.22;100.00;98938.16;5112832;28;20243;-68
2021/01/04 00:25:58;;;;;;;18.67;9.77;;;;;;;2.22;100.00;98935.50;5113289;28;20597;-68
2021/01/04 00:28:29;;;;;;;12.63;8.15;;;;;;;2.31;99.80;98934.34;5112816;28;20287;-67
2021/01/04 00:31:00;;;;;;;19.27;10.30;;;;;;;2.08;99.05;98936.00;5112772;28;20274;-66
2021/01/04 00:33:33;;;;;;;20.05;10.65;;;;;;;2.15;100.00;98935.75;5113115;28;20179;-67
2021/01/04 00:36:02;;;;;;;12.93;8.60;;;;;;;2.04;100.00;98937.00;5112997;28;20218;-67
2021/01/04 00:39:03;;;;;;;17.40;8.80;;;;;;;2.15;100.00;98935.75;5113024;28;20183;-67
2021/01/04 00:41:41;;;;;;;15.90;9.27;;;;;;;2.26;100.00;98930.94;5112676;28;20182;-67
2021/01/04 00:44:12;;;;;;;13.05;9.02;;;;;;;2.47;100.00;98934.66;5092036;28;20278;-67
2021/01/04 00:46:43;;;;;;;16.27;9.73;;;;;;;2.38;99.71;98927.88;5092540;28;20362;-67
2021/01/04 00:49:15;;;;;;;12.70;8.35;;;;;;;2.37;99.08;98931.44;5092767;28;20191;-68
2021/01/04 00:51:48;;;;;;;16.35;9.23;;;;;;;2.30;99.09;98933.44;5092597;28;20188;-67
2021/01/04 00:54:30;;;;;;;14.23;7.65;;;;;;;2.20;99.38;98928.53;5092515;28;20692;-67
2021/01/04 00:57:09;;;;;;;12.90;7.35;;;;;;;2.09;100.00;98932.41;5092533;28;20541;-67
2021/01/04 00:59:48;;;;;;;13.95;8.50;;;;;;;2.15;100.00;98935.75;5092081;28;20191;-67
2021/01/04 01:02:37;;;;;;;15.20;9.70;;;;;;;2.25;100.00;98939.84;5092190;28;20203;-67
2021/01/04 01:05:10;;;;;;;16.40;7.93;;;;;;;2.17;99.62;98934.81;5092438;28;20269;-67
2021/01/04 01:08:17;;;;;;;12.02;7.25;;;;;;;2.26;99.55;98929.19;5092355;28;20188;-67
2021/01/04 01:10:46;;;;;;;10.68;6.75;;;;;;;2.26;99.17;98931.84;5092174;28;20267;-67
2021/01/04 01:13:25;;;;;;;14.25;9.32;;;;;;;2.30;98.82;98928.13;5102684;28;20192;-67
2021/01/04 01:16:12;;;;;;;16.10;9.07;;;;;;;2.26;98.60;98931.84;5112871;28;20179;-67
2021/01/04 01:18:41;;;;;;;12.48;8.43;;;;;;;2.18;99.31;98927.72;5112246;28;20183;-68
2021/01/04 01:21:10;;;;;;;14.48;9.05;;;;;;;2.14;99.94;98929.59;5112127;28;20310;-67
2021/01/04 01:23:39;;;;;;;16.27;10.45;;;;;;;2.11;100.00;98931.50;5112050;28;20291;-67
2021/01/04 01:26:23;;;;;;;18.13;9.13;;;;;;;2.06;100.00;98935.19;5112437;28;20238;-67
2021/01/04 01:29:25;;;;;;;12.82;8.55;;;;;;;2.13;100.00;98930.53;5112392;28;20189;-67
2021/01/04 01:32:29;;;;;;;16.67;8.35;;;;;;;2.18;100.00;98943.66;5112467;28;20183;-68
2021/01/04 01:35:05;;;;;;;12.82;7.57;;;;;;;2.18;100.00;98941.84;5102497;28;20199;-67
2021/01/04 01:38:21;;;;;;;15.27;9.15;;;;;;;2.08;99.89;98943.97;5112344;28;20209;-66
2021/01/04 01:41:16;;;;;;;13.15;8.45;;;;;;;2.17;99.56;98948.09;5049275;28;20627;-67
2021/01/04 01:43:52;;;;;;;11.27;7.10;;;;;;;2.11;99.38;98956.25;5073853;28;20256;-67
2021/01/04 01:46:25;;;;;;;14.32;8.25;;;;;;;2.05;99.65;98951.16;5091697;28;20183;-67
2021/01/04 01:49:11;;;;;;;15.30;8.15;;;;;;;2.09;100.00;98952.78;5091509;28;20200;-67
2021/01/04 01:51:53;;;;;;;15.10;7.35;;;;;;;2.05;100.00;98951.16;5091531;28;20186;-67
2021/01/04 01:54:40;;;;;;;13.77;8.82;;;;;;;2.10;100.00;98957.16;5091428;28;20188;-66
2021/01/04 01:57:32;;;;;;;16.17;8.68;;;;;;;2.11;100.00;98950.97;5091797;28;20204;-67
2021/01/04 02:00:14;;;;;;;13.27;6.78;;;;;;;2.10;99.71;98951.84;5092067;28;20679;-67
2021/01/04 02:02:49;;;;;;;11.80;7.88;;;;;;;2.03;100.00;98950.34;5091260;28;20247;-67
2021/01/04 02:05:27;;;;;;;11.35;7.60;;;;;;;2.06;99.86;98959.06;5091367;28;20195;-67
2021/01/04 02:07:59;;;;;;;11.77;8.02;;;;;;;2.03;99.69;98951.19;5091373;28;20242;-67
2021/01/04 02:10:31;;;;;;;10.88;7.05;;;;;;;2.06;99.63;98945.81;5091579;28;20291;-68
2021/01/04 02:13:05;;;;;;;8.95;6.00;;;;;;;2.10;99.29;98951.84;5102060;28;20180;-67
2021/01/04 02:15:35;;;;;;;12.00;7.15;;;;;;;2.14;98.87;98952.63;5111905;28;20203;-66
2021/01/04 02:18:24;;;;;;;10.57;7.18;;;;;;;2.11;98.79;98952.75;5111626;28;20195;-67
2021/01/04 02:21:40;;;;;;;11.55;7.43;;;;;;;2.37;98.67;98954.50;5111676;28;20226;-67
2021/01/04 02:24:09;;;;;;;10.40;5.47;;;;;;;2.35;97.36;98953.66;5112074;28;20199;-66
2021/01/04 02:26:38;;;;;;;12.57;6.00;;;;;;;2.37;96.93;98950.03;5111935;28;20648;-66
2021/01/04 02:29:07;;;;;;;14.57;7.53;;;;;;;2.25;97.34;98955.78;5112063;28;20199;-67
2021/01/04 02:31:36;;;;;;;12.60;6.72;;;;;;;2.19;97.56;98954.19;5111542;28;20373;-66
2021/01/04 02:34:04;;;;;;;15.65;7.03;;;;;;;2.16;97.72;98953.44;5112752;28;20605;-67
2021/01/04 02:36:35;;;;;;;9.98;6.22;;;;;;;2.16;97.72;98949.00;5115385;28;20279;-67
2021/01/04 02:39:07;;;;;;;9.93;6.57;;;;;;;2.16;97.66;98948.13;5115449;28;20542;-66
2021/01/04 02:42:05;;;;;;;11.18;6.20;;;;;;;2.23;97.36;98944.34;5115281;28;20619;-67
2021/01/04 02:44:33;;;;;;;10.32;5.75;;;;;;;2.19;97.62;98942.72;5115171;28;20199;-67
2021/01/04 02:47:22;;;;;;;9.30;6.10;;;;;;;2.25;97.75;98940.72;5115745;28;20200;-67
2021/01/04 02:49:57;;;;;;;12.82;6.45;;;;;;;2.06;98.17;98939.63;5112554;28;20252;-67
2021/01/04 02:52:39;;;;;;;10.93;7.50;;;;;;;2.19;98.23;98940.91;5114742;28;20264;-66
2021/01/04 02:55:15;;;;;;;10.57;6.60;;;;;;;2.20;98.02;98942.66;5115074;28;20188;-66
2021/01/04 02:58:00;;;;;;;12.70;7.25;;;;;;;2.22;97.70;98943.47;5115124;28;20198;-66
2021/01/04 03:00:28;;;;;;;12.70;8.35;;;;;;;2.15;97.81;98939.31;5052217;28;20205;-67
2021/01/04 03:02:58;;;;;;;11.32;7.38;;;;;;;2.09;98.63;98937.72;5051726;28;20312;-66
2021/01/04 03:05:26;;;;;;;10.05;6.88;;;;;;;2.10;99.29;98946.53;5051496;28;20267;-67
2021/01/04 03:07:57;;;;;;;11.10;7.78;;;;;;;2.03;98.88;98935.25;5051807;28;20201;-67
2021/01/04 03:10:27;;;;;;;12.85;7.03;;;;;;;2.02;99.92;98938.00;5051704;28;20197;-66
2021/01/04 03:13:08;;;;;;;11.35;7.57;;;;;;;2.09;99.66;98936.84;5051584;28;20584;-67
2021/01/04 03:15:44;;;;;;;7.68;5.55;;;;;;;2.11;99.26;98937.69;5052370;28;20274;-67
2021/01/04 03:18:21;;;;;;;8.43;6.15;;;;;;;2.06;98.26;98935.19;5051920;28;20201;-66
2021/01/04 03:20:47;;;;;;;11.25;6.28;;;;;;;1.98;98.30;98939.88;5051396;28;20232;-68
2021/01/04 03:23:14;;;;;;;8.45;4.82;;;;;;;2.07;98.22;98934.25;5051478;28;20217;-67
2021/01/04 03:25:45;;;;;;;7.55;5.32;;;;;;;2.03;97.63;98931.75;5051629;28;20201;-66
2021/01/04 03:28:21;;;;;;;12.40;5.85;;;;;;;2.06;97.48;98932.53;5051494;28;20193;-66
2021/01/04 03:30:48;;;;;;;9.80;5.50;;;;;;;2.09;96.99;98929.75;5051504;28;20204;-66
2021/01/04 03:33:14;;;;;;;9.65;5.30;;;;;;;2.11;96.00;98928.84;5051236;28;20561;-68
2021/01/04 03:35:41;;;;;;;10.85;5.25;;;;;;;2.06;96.61;98934.31;5051389;28;20592;-67
2021/01/04 03:38:07;;;;;;;9.70;6.90;;;;;;;2.19;96.85;98935.59;5097957;28;20195;-69
2021/01/04 03:40:34;;;;;;;11.23;7.10;;;;;;;2.23;96.54;98931.06;5114136;28;20525;-68
2021/01/04 03:43:00;;;;;;;10.30;5.75;;;;;;;2.19;96.46;98927.63;5113886;28;20257;-67
2021/01/04 03:45:27;;;;;;;9.65;6.07;;;;;;;2.11;97.09;98927.06;5114192;28;20640;-66
2021/01/04 03:47:54;;;;;;;9.80;5.50;;;;;;;2.22;97.51;98929.34;5114181;28;20625;-67
2021/01/04 03:50:20;;;;;;;12.38;6.03;;;;;;;2.14;96.76;98926.06;5113714;28;20207;-68
2021/01/04 03:52:46;;;;;;;7.93;5.05;;;;;;;2.25;96.38;98924.78;5113699;28;20195;-67
2021/01/04 03:55:15;;;;;;;9.93;5.85;;;;;;;2.26;95.90;98920.31;5113507;28;20214;-66
2021/01/04 03:57:41;;;;;;;7.00;4.75;;;;;;;2.11;95.42;98918.22;5113731;28;20190;-68
2021/01/04 04:00:10;;;;;;;9.35;5.15;;;;;;;2.23;95.47;98923.09;5113423;28;20256;-67
2021/01/04 04:02:38;;;;;;;9.90;6.18;;;;;;;2.12;95.74;98917.28;5113421;28;20223;-67
2021/01/04 04:05:06;;;;;;;8.95;4.90;;;;;;;1.99;96.06;98919.50;5113090;28;20187;-68
2021/01/04 04:07:32;;;;;;;9.48;6.00;;;;;;;2.04;96.57;98923.75;5113534;28;20299;-66
2021/01/04 04:09:58;;;;;;;7.85;5.50;;;;;;;2.02;96.32;98920.25;5113553;28;20522;-67
2021/01/04 04:12:24;;;;;;;11.35;6.10;;;;;;;2.06;96.61;98926.34;5113797;28;20286;-67
2021/01/04 04:14:51;;;;;;;10.27;5.57;;;;;;;2.04;96.63;98934.34;5113451;28;20199;-67
2021/01/04 04:17:18;;;;;;;8.88;5.18;;;;;;;1.99;96.96;98930.09;5113702;28;20183;-66
2021/01/04 04:19:46;;;;;;;10.18;5.60;;;;;;;1.97;97.29;98929.31;5113073;28;20235;-67
2021/01/04 04:22:12;;;;;;;12.00;6.68;;;;;;;1.94;97.43;98934.72;5113081;28;22174;-67
2021/01/04 04:24:39;;;;;;;8.63;5.70;;;;;;;1.99;97.82;98943.38;5113114;28;20203;-67
2021/01/04 04:27:06;;;;;;;9.18;6.30;;;;;;;2.00;97.58;98945.13;5113507;28;20563;-66
2021/01/04 04:29:32;;;;;;;9.57;5.22;;;;;;;2.04;97.29;98952.09;5113328;28;20570;-67
2021/01/04 04:31:58;;;;;;;8.50;5.32;;;;;;;2.11;96.71;98942.97;5113347;28;20214;-67
2021/01/04 04:34:25;;;;;;;6.30;4.45;;;;;;;2.01;96.31;98942.44;5112812;28;20199;-69
2021/01/04 04:36:52;;;;;;;9.32;4.93;;;;;;;2.20;96.49;98939.16;5092970;28;20267;-67
2021/01/04 04:39:18;;;;;;;9.52;5.60;;;;;;;2.17;96.24;98941.91;5092890;28;20637;-66
2021/01/04 04:41:46;;;;;;;10.32;6.00;;;;;;;2.11;96.38;98945.66;5092881;28;20199;-66
2021/01/04 04:44:24;;;;;;;12.40;7.80;;;;;;;2.15;96.77;98947.28;5092326;28;20227;-68
2021/01/04 04:47:10;;;;;;;9.43;6.50;;;;;;;2.27;96.37;98953.94;5092501;28;20200;-67
2021/01/04 04:50:10;;;;;;;12.23;5.45;;;;;;;2.39;96.49;98950.84;5088770;28;20199;-66
2021/01/04 04:52:55;;;;;;;8.23;5.57;;;;;;;2.37;95.22;98944.72;5087269;28;20558;-66
2021/01/04 04:55:38;;;;;;;12.32;6.50;;;;;;;2.38;94.73;98940.31;5092190;28;20226;-67
2021/01/04 04:58:30;;;;;;;10.68;5.70;;;;;;;2.32;95.52;98943.16;5091725;28;20290;-66
2021/01/04 05:01:23;;;;;;;8.43;4.20;;;;;;;2.34;95.21;98943.97;5083825;28;20291;-66
2021/01/04 05:04:14;;;;;;;12.07;5.45;;;;;;;2.26;94.94;98934.50;5089874;28;20307;-66
2021/01/04 05:06:50;;;;;;;7.00;4.68;;;;;;;2.29;95.01;98939.69;5107720;28;20222;-68
2021/01/04 05:10:01;;;;;;;10.48;5.65;;;;;;;2.28;95.20;98945.03;5112785;28;20675;-67
2021/01/04 05:12:47;;;;;;;9.10;5.45;;;;;;;2.30;95.11;98938.75;5049580;28;20205;-67
2021/01/04 05:15:42;;;;;;;7.82;5.13;;;;;;;2.30;94.90;98937.91;5049438;28;20193;-66
2021/01/04 05:18:40;;;;;;;7.32;4.97;;;;;;;2.16;95.21;98933.06;5101162;28;20283;-69
2021/01/04 05:21:36;;;;;;;7.88;4.75;;;;;;;2.14;95.03;98939.34;5112277;28;20317;-67
2021/01/04 05:24:15;;;;;;;8.68;4.80;;;;;;;2.09;95.19;98939.50;5112075;28;20214;-66
2021/01/04 05:27:21;;;;;;;11.75;5.40;;;;;;;2.14;95.98;98945.53;5112350;28;20194;-68
2021/01/04 05:30:23;;;;;;;10.68;6.65;;;;;;;2.15;96.16;98946.38;5112495;28;20617;-67
2021/01/04 05:33:10;;;;;;;11.00;6.10;;;;;;;2.08;95.81;98943.97;5109261;28;20198;-67
2021/01/04 05:35:38;;;;;;;9.40;5.55;;;;;;;2.15;95.96;98947.28;5112029;28;20194;-67
2021/01/04 05:38:13;;;;;;;8.60;5.90;;;;;;;2.24;96.60;98946.97;5112076;28;20202;-68
2021/01/04 05:40:57;;;;;;;8.32;6.05;;;;;;;2.27;96.15;98949.50;5112036;28;20274;-67
2021/01/04 05:43:44;;;;;;;6.53;4.72;;;;;;;2.20;96.26;98947.13;5111918;28;20215;-66
2021/01/04 05:49:31;;;;;;;6.80;5.63;;;;;;;2.49;94.83;98952.28;5111812;28;20172;-66
2021/01/04 05:52:00;;;;;;;7.57;5.20;;;;;;;2.62;93.80;98955.38;5112180;28;20186;-67
2021/01/04 05:54:30;;;;;;;8.68;5.13;;;;;;;2.59;93.80;98959.91;5112330;28;20187;-67
2021/01/04 05:57:10;;;;;;;10.38;6.60;;;;;;;2.67;93.68;98964.03;5112135;28;20203;-68
2021/01/04 05:59:47;;;;;;;8.00;5.15;;;;;;;2.77;93.45;98966.38;5112216;28;20188;-68
2021/01/04 06:02:25;;;;;;;6.82;5.43;;;;;;;2.60;92.32;98967.84;5111525;28;20294;-67
2021/01/04 06:05:08;;;;;;;8.73;5.88;;;;;;;2.50;92.58;98969.09;5112078;28;20215;-66
2021/01/04 06:07:50;;;;;;;9.50;5.43;;;;;;;2.54;93.02;98969.84;5111581;28;20194;-67
2021/01/04 06:10:21;;;;;;;11.90;6.95;;;;;;;2.74;92.46;98970.00;5115002;28;20549;-67
2021/01/04 06:12:52;;;;;;;10.43;7.55;;;;;;;2.74;91.67;98974.44;5115408;28;20274;-66
2021/01/04 06:15:40;;;;;;;7.43;4.45;;;;;;;2.64;91.41;98971.25;5115517;28;20215;-68
2021/01/04 06:18:09;;;;;;;7.35;5.18;;;;;;;2.53;92.41;98966.31;5115964;28;20253;-67
2021/01/04 06:21:11;;;;;;;9.43;5.53;;;;;;;2.60;91.64;98964.28;5115393;28;20306;-68
2021/01/04 06:23:39;;;;;;;9.60;5.68;;;;;;;2.53;92.23;98968.97;5113398;28;20256;-68
2021/01/04 06:26:14;;;;;;;8.07;5.35;;;;;;;2.58;92.65;98972.34;5115272;28;20199;-68
2021/01/04 06:28:45;;;;;;;11.20;6.03;;;;;;;2.66;92.48;98978.25;5115115;28;20219;-67
2021/01/04 06:31:16;;;;;;;12.50;5.72;;;;;;;2.69;92.14;98979.91;5115285;28;20266;-66
2021/01/04 06:33:42;;;;;;;14.15;7.40;;;;;;;2.72;92.53;98982.47;5115382;28;20688;-67
2021/01/04 06:36:15;;;;;;;8.80;5.53;;;;;;;2.57;92.12;98970.59;5115292;28;20183;-69
2021/01/04 06:38:43;;;;;;;9.15;6.32;;;;;;;2.55;92.58;98972.44;5114674;28;20184;-68
2021/01/04 06:41:16;;;;;;;11.80;6.13;;;;;;;2.76;92.01;98975.25;5115069;28;20572;-68
2021/01/04 06:43:42;;;;;;;8.40;4.78;;;;;;;2.82;90.40;98970.56;5114838;28;20290;-66
2021/01/04 06:46:32;;;;;;;8.80;4.90;;;;;;;2.87;90.30;98973.97;5114928;28;20673;-67
2021/01/04 06:49:03;;;;;;;8.38;5.22;;;;;;;2.75;90.28;98970.88;5114895;28;20191;-68
2021/01/04 06:51:52;;;;;;;11.05;5.68;;;;;;;2.57;90.97;98972.38;5114999;28;20199;-67
2021/01/04 06:54:46;;;;;;;9.70;5.72;;;;;;;2.77;90.68;98980.50;5114984;28;20180;-67
2021/01/04 06:57:45;;;;;;;11.05;7.75;;;;;;;2.72;91.04;98972.72;5114477;28;20187;-67
2021/01/04 07:00:28;;;;;;;11.27;7.20;;;;;;;2.73;91.55;98981.53;5105756;28;20532;-67
2021/01/04 07:03:26;;;;;;;13.43;6.07;;;;;;;2.62;91.92;98987.28;5114938;28;20291;-68
2021/01/04 07:06:20;;;;;;;7.88;5.05;;;;;;;2.49;93.13;98994.78;5114975;28;20275;-68
2021/01/04 07:09:31;;;;;;;9.77;5.70;;;;;;;2.54;93.69;98988.47;5114136;27;20223;-67
2021/01/04 07:12:02;;;;;;;15.23;6.80;;;;;;;2.49;93.89;98984.16;5114819;28;20183;-67
2021/01/04 07:14:52;;;;;;;9.88;5.80;;;;;;;2.51;94.69;98997.41;5114874;28;20211;-67
2021/01/04 07:17:51;;;;;;;9.15;5.72;;;;;;;2.58;94.25;98992.72;5114738;28;20276;-67
2021/01/04 07:20:44;;;;;;;7.65;5.43;;;;;;;2.53;94.16;98997.34;5113402;28;20239;-66
2021/01/04 07:23:30;;;;;;;12.05;5.68;;;;;;;2.49;94.54;98993.94;5114353;28;20211;-67
2021/01/04 07:26:05;;;;;;;10.85;7.18;;;;;;;2.47;94.45;98999.28;5114442;28;20267;-66
2021/01/04 07:29:02;;;;;;;10.65;5.75;;;;;;;2.48;93.85;98989.53;5114227;28;20566;-67
2021/01/04 07:31:37;;;;;;;11.70;5.40;;;;;;;2.53;94.22;98992.00;5114326;28;20228;-68
2021/01/04 07:34:16;;;;;;;7.53;6.18;;;;;;;2.53;94.55;98992.00;5114261;28;20232;-68
2021/01/04 07:36:58;;;;;;;12.10;5.95;;;;;;;2.51;94.12;98994.75;5113851;28;20198;-66
2021/01/04 07:39:42;;;;;;;8.27;5.60;;;;;;;2.52;94.79;98995.63;5113285;28;20190;-68
2021/01/04 07:42:31;;;;;;;13.63;6.95;;;;;;;2.57;93.91;99005.16;5114098;28;20549;-65
2021/01/04 07:45:26;;;;;;;14.30;6.15;;;;;;;2.61;93.86;98998.81;5113651;27;20187;-66
2021/01/04 07:48:33;;;;;;;9.35;5.40;;;;;;;2.63;93.07;99004.06;5112033;28;20203;-67
2021/01/04 07:51:15;;;;;;;15.23;5.90;;;;;;;2.68;93.69;99013.59;5114209;28;20199;-67
2021/01/04 07:54:08;;;;;;;13.13;6.57;;;;;;;2.53;93.84;99007.97;5113498;28;20288;-67
2021/01/04 07:57:10;;;;;;;10.52;6.50;;;;;;;2.65;93.74;99010.22;5113668;28;20283;-67
2021/01/04 08:00:21;;;;;;;10.73;5.18;;;;;;;2.62;94.28;99010.28;5113420;28;20180;-68
2021/01/04 08:03:44;;;;;;;8.45;5.90;;;;;;;2.56;93.56;99011.41;5113173;28;20242;-67
2021/01/04 08:06:29;;;;;;;6.88;5.10;;;;;;;2.56;94.41;99021.16;5113445;28;20600;-67
2021/01/04 08:09:04;;;;;;;9.18;5.55;;;;;;;2.55;94.75;99017.63;5113080;28;20673;-67
2021/01/04 08:11:55;;;;;;;7.28;5.35;;;;;;;2.58;94.67;99020.19;5113175;28;20234;-67
2021/01/04 08:15:05;;;;;;;9.68;5.43;;;;;;;2.52;94.16;99017.72;5113311;28;20514;-67
2021/01/04 08:17:47;;;;;;;10.82;6.22;;;;;;;2.52;94.00;99025.72;5112999;28;20230;-66
2021/01/04 08:20:14;;;;;;;8.90;5.70;;;;;;;2.61;93.92;99028.03;5112814;28;20235;-68
2021/01/04 08:22:51;;;;;;;12.10;6.13;;;;;;;2.65;93.65;99020.84;5113081;28;20223;-67
2021/01/04 08:25:31;;;;;;;7.03;4.28;;;;;;;2.59;93.30;99021.91;5113400;28;20634;-67
2021/01/04 08:28:10;;;;;;;11.85;6.80;;;;;;;2.67;93.64;99025.19;5113007;28;20183;-68
2021/01/04 08:30:40;;;;;;;11.60;6.85;;;;;;;2.70;93.23;99027.72;5112866;28;20626;-66
2021/01/04 08:33:15;;;;;;;9.65;5.45;;;;;;;2.72;93.50;99025.00;5112158;28;20204;-68
2021/01/04 08:35:45;;;;;;;17.48;10.23;;;;;;;2.64;93.50;99025.25;5111232;28;20458;-67
2021/01/04 08:38:22;;;;;;;16.52;6.85;;;;;;;2.90;97.08;99029.66;5112459;28;20632;-68
2021/01/04 08:41:03;;;;;;;10.88;5.97;;;;;;;2.85;96.52;99021.00;5112546;28;20269;-68
2021/01/04 08:43:35;;;;;;;11.57;5.75;;;;;;;2.97;96.99;99032.97;5112485;28;20325;-66
2021/01/04 08:46:28;;;;;;;15.15;7.10;;;;;;;2.94;93.64;99027.78;5112539;28;20270;-68
2021/01/04 08:48:57;;;;;;;13.15;7.20;;;;;;;2.99;93.09;99031.13;5073986;28;20200;-67
2021/01/04 08:51:41;;;;;;;10.40;6.32;;;;;;;2.91;92.51;99027.88;5112657;28;20189;-67
2021/01/04 08:54:25;;;;;;;9.18;5.55;;;;;;;2.73;91.84;99024.06;5112192;28;20215;-67
2021/01/04 08:57:06;;;;;;;16.52;9.60;;;;;;;2.90;92.69;99029.66;5112740;28;20404;-66
2021/01/04 09:00:32;;;;;;;10.15;6.28;;;;;;;3.00;92.31;99029.34;5112357;28;20183;-67
2021/01/04 09:03:15;;;;;;;11.32;6.68;;;;;;;3.10;92.28;99017.44;5111970;28;20223;-67
2021/01/04 09:06:35;;;;;;;13.25;6.68;;;;;;;3.22;91.44;99019.63;5112178;28;20207;-68
2021/01/04 09:19:35;;;;;;;13.35;7.45;;;;;;;3.29;90.66;99028.25;5060193;28;20656;-68
2021/01/04 09:22:32;;;;;;;;;;;;;;;;;;;;;
2021/01/04 09:25:11;;;;;;;11.93;6.53;;;;;;;3.25;90.80;99029.28;5112505;28;20197;-66
2021/01/04 09:27:53;;;;;;;16.67;7.70;;;;;;;3.05;90.57;99038.91;5112115;28;20203;-66
2021/01/04 09:30:41;;;;;;;14.82;6.65;;;;;;;2.95;91.17;99040.13;5111809;28;20286;-67
2021/01/04 09:33:25;;;;;;;10.82;6.55;;;;;;;3.19;91.10;99034.84;5112165;28;20215;-66
2021/01/04 09:39:26;;;;;;;10.60;5.90;;;;;;;3.09;91.09;99029.00;5110230;28;20214;-66
2021/01/04 09:42:41;;;;;;;12.43;6.55;;;;;;;3.02;91.27;99036.34;5112220;28;20216;-67
2021/01/04 09:48:40;;;;;;;13.50;7.63;;;;;;;2.89;92.62;99037.69;5008154;28;20236;-67
2021/01/04 09:51:39;;;;;;;16.23;6.93;;;;;;;2.90;92.75;99042.97;5054470;28;20562;-67
2021/01/04 09:54:43;;;;;;;12.60;7.32;;;;;;;3.01;91.67;99034.59;5054791;28;20229;-67
2021/01/04 10:00:45;;;;;;;14.27;7.55;;;;;;;3.07;91.69;99036.16;5052808;28;20201;-67
2021/01/04 10:06:42;;;;;;;11.98;6.45;;;;;;;3.29;90.06;99029.13;5034958;28;20219;-65
2021/01/04 10:09:26;;;;;;;13.65;6.95;;;;;;;3.21;91.18;99027.66;5034998;28;20201;-66
2021/01/04 10:12:10;;;;;;;11.55;6.82;;;;;;;3.44;91.06;99030.34;5035429;28;20202;-66
2021/01/04 10:14:43;;;;;;;14.65;6.90;;;;;;;3.44;89.46;99035.69;5034716;28;20312;-66
2021/01/04 10:17:42;;;;;;;19.73;8.48;;;;;;;3.58;90.17;99028.97;5034433;28;20241;-67
2021/01/04 10:20:41;;;;;;;13.05;7.07;;;;;;;3.58;89.59;99028.97;5034332;28;20228;-66
2021/01/04 10:23:36;;;;;;;15.65;8.00;;;;;;;3.66;88.95;99022.38;5034435;28;20226;-66
2021/01/04 10:26:09;;;;;;;17.02;7.18;;;;;;;3.57;88.60;99025.41;5034084;28;20211;-67
2021/01/04 10:28:45;;;;;;;13.82;7.20;;;;;;;3.58;88.79;99023.63;5034342;28;20213;-67
2021/01/04 10:31:27;;;;;;;11.90;6.97;;;;;;;3.45;88.31;99013.44;5033744;28;20226;-66
2021/01/04 10:34:19;;;;;;;15.27;6.88;;;;;;;3.51;88.92;99020.34;5034459;28;20205;-66
2021/01/04 10:37:02;;;;;;;13.48;6.78;;;;;;;3.64;89.39;99005.63;5033912;28;20314;-66
2021/01/04 10:39:41;;;;;;;14.75;7.10;;;;;;;3.91;87.61;99013.41;5033745;28;20206;-67
2021/01/04 10:42:24;;;;;;;12.20;6.53;;;;;;;3.71;87.85;99006.25;5033721;28;20736;-67
2021/01/04 10:45:05;;;;;;;10.20;5.93;;;;;;;3.80;88.27;99011.22;5047495;28;20536;-66
2021/01/04 10:47:52;;;;;;;15.65;9.25;;;;;;;3.91;88.08;99003.66;5054051;28;20205;-67
2021/01/04 10:50:30;;;;;;;11.02;6.63;;;;;;;4.09;86.84;99004.72;5053919;28;20534;-65
2021/01/04 10:53:21;;;;;;;13.18;6.57;;;;;;;3.66;86.65;98998.41;5053902;28;20540;-67
2021/01/04 10:56:24;;;;;;;16.90;7.72;;;;;;;3.61;87.82;98994.22;5052414;28;20537;-66
2021/01/04 10:59:09;;;;;;;11.73;7.07;;;;;;;3.45;88.31;98994.81;5053051;28;20716;-66
2021/01/04 11:01:45;;;;;;;12.50;7.28;;;;;;;3.47;89.40;98995.63;5052927;28;20202;-67
2021/01/04 11:04:28;;;;;;;14.50;6.47;;;;;;;3.50;88.23;98984.84;5053450;28;20217;-67
2021/01/04 11:07:31;;;;;;;11.82;6.75;;;;;;;3.63;88.61;98984.38;5053315;28;20247;-67
2021/01/04 11:10:22;;;;;;;15.48;8.77;;;;;;;3.74;88.86;98977.69;5053116;28;20661;-67
2021/01/04 11:12:53;;;;;;;12.30;7.05;;;;;;;3.47;88.81;98971.66;5053214;28;20210;-67
2021/01/04 11:15:40;;;;;;;11.00;6.10;;;;;;;3.46;89.92;98975.28;5052909;28;20544;-67
2021/01/04 11:18:43;;;;;;;14.20;7.38;;;;;;;3.37;90.39;98967.66;5053161;28;20197;-67
2021/01/04 11:21:38;;;;;;;7.78;5.78;;;;;;;3.41;90.01;98963.91;5051158;28;20285;-64
2021/01/04 11:24:23;;;;;;;12.85;6.35;;;;;;;3.27;91.05;98971.56;5052158;28;20952;-63
2021/01/04 11:26:49;;;;;;;11.40;8.45;;;;;;;3.30;90.84;98964.34;5052959;28;20614;-64
2021/01/04 11:29:36;;;;;;;12.20;6.40;;;;;;;3.33;90.99;98952.72;5052944;28;20205;-62
2021/01/04 11:32:12;;;;;;;20.52;6.10;;;;;;;3.33;90.46;98958.03;5053163;28;20205;-63
2021/01/04 11:34:47;;;;;;;14.30;7.22;;;;;;;3.39;90.81;98957.78;5052884;28;20294;-66
2021/01/04 11:37:14;;;;;;;14.10;6.95;;;;;;;3.46;90.60;98955.75;5052927;28;20212;-65
2021/01/04 11:39:52;;;;;;;13.10;8.85;;;;;;;3.57;90.56;98960.66;5053017;28;20205;-65
2021/01/04 11:42:33;;;;;;;13.23;6.63;;;;;;;3.59;89.98;98954.34;5053067;28;20637;-65
2021/01/04 11:45:12;;;;;;;14.90;6.55;;;;;;;3.50;91.09;98949.38;5052837;28;20213;-66
2021/01/04 11:47:49;;;;;;;12.57;7.25;;;;;;;3.55;90.74;98948.28;5053070;28;20650;-66
2021/01/04 11:50:20;;;;;;;13.27;5.35;;;;;;;3.47;90.25;98955.69;5052684;28;20616;-65
2021/01/04 11:52:47;;;;;;;15.35;6.75;;;;;;;3.50;90.13;98949.38;5052612;28;20238;-65
2021/01/04 11:55:31;;;;;;;;;;;;;;;;;;;;;
2021/01/04 11:58:05;;;;;;;15.65;6.68;;;;;;;3.57;90.17;98945.53;5052869;28;20183;-65
2021/01/04 12:00:31;;;;;;;17.45;7.00;;;;;;;3.41;90.00;98942.63;5052376;28;20198;-65
2021/01/04 12:02:58;;;;;;;11.65;6.35;;;;;;;3.58;89.70;98941.13;5052814;28;20220;-65
2021/01/04 12:05:27;;;;;;;15.23;6.50;;;;;;;3.56;89.45;98941.16;5052402;28;20650;-66
2021/01/04 12:07:54;;;;;;;18.60;6.90;;;;;;;3.61;88.39;98936.50;5052484;28;20190;-65
2021/01/04 12:10:23;;;;;;;11.40;7.38;;;;;;;3.63;88.88;98939.13;5052446;28;20197;-65
2021/01/04 12:12:49;;;;;;;14.07;8.25;;;;;;;3.79;88.40;98936.69;5052582;28;20230;-66
2021/01/04 12:15:17;;;;;;;14.88;8.57;;;;;;;4.01;86.93;98934.88;5052250;28;20206;-65
2021/01/04 12:17:43;;;;;;;9.43;6.35;;;;;;;3.74;86.62;98945.75;5052718;28;20212;-65
2021/01/04 12:20:34;;;;;;;12.57;7.00;;;;;;;3.82;86.52;98940.13;5052157;28;20239;-66
2021/01/04 12:23:09;;;;;;;11.65;6.65;;;;;;;3.55;86.96;98942.09;5052322;28;20272;-67
2021/01/04 12:25:37;;;;;;;10.80;6.47;;;;;;;3.48;88.05;98944.16;5051874;28;20199;-64
2021/01/04 12:28:27;;;;;;;11.70;5.50;;;;;;;3.43;88.22;98931.94;5052225;28;20205;-65
2021/01/04 12:31:14;;;;;;;14.82;7.13;;;;;;;3.32;88.86;98932.34;5052153;28;20210;-66
2021/01/04 12:33:52;;;;;;;16.88;6.43;;;;;;;3.38;88.69;98933.91;5051880;28;20200;-66
2021/01/04 12:36:28;;;;;;;10.20;6.28;;;;;;;3.44;88.49;98926.56;5052251;28;20192;-66
2021/01/04 12:38:58;;;;;;;12.65;7.13;;;;;;;3.52;87.48;98928.91;5052189;28;20537;-66
2021/01/04 12:41:40;;;;;;;13.90;7.13;;;;;;;3.46;87.18;98922.03;5051799;28;20244;-64
2021/01/04 12:44:12;;;;;;;18.33;7.55;;;;;;;3.60;87.83;98928.59;5051506;28;20213;-65
2021/01/04 12:46:47;;;;;;;11.30;5.82;;;;;;;3.74;86.57;98927.09;5051214;28;20572;-65
2021/01/04 12:49:28;;;;;;;15.65;7.53;;;;;;;3.71;87.18;98934.38;5051707;28;20224;-65
2021/01/04 12:52:02;;;;;;;10.65;6.90;;;;;;;3.55;87.03;98926.13;5051532;28;20644;-64
2021/01/04 12:54:49;;;;;;;16.73;6.43;;;;;;;3.65;87.20;98915.97;5052054;28;20623;-65
2021/01/04 12:57:47;;;;;;;13.25;7.13;;;;;;;3.60;86.23;98923.28;5052057;28;20188;-66
2021/01/04 13:00:41;;;;;;;9.20;5.88;;;;;;;3.74;85.79;98916.44;5051939;28;20214;-66
2021/01/04 13:03:14;;;;;;;10.35;6.32;;;;;;;3.76;85.50;98914.59;5052089;28;20217;-65
2021/01/04 13:05:41;;;;;;;15.52;7.63;;;;;;;3.82;85.75;98917.91;5051569;28;20183;-65